sensor_id;sensor_type;location;lat;lon;timestamp;P1;durP1;ratioP1;P2;durP2;ratioP2
20181;SDS011;10250;50.756;6.172;2023-06-14T00:00:52;13.83;;;4.57;;
20181;SDS011;10250;50.756;6.172;2023-06-14T00:02:53;11.77;;;4.10;;
20181;SDS011;10250;50.756;6.172;2023-06-14T00:04:55;13.20;;;4.73;;
20181;SDS011;10250;50.756;6.172;2023-06-14T00:06:56;14.10;;;4.90;;
20181;SDS011;10250;50.756;6.172;2023-06-14T00:08:57;14.93;;;4.60;;
20181;SDS011;10250;50.756;6.172;2023-06-14T00:10:57;13.97;;;4.67;;
20181;SDS011;10250;50.756;6.172;2023-06-14T00:12:58;13.90;;;4.60;;
20181;SDS011;10250;50.756;6.172;2023-06-14T00:14:59;12.20;;;4.23;;
20181;SDS011;10250;50.756;6.172;2023-06-14T00:17:03;14.40;;;4.73;;
20181;SDS011;10250;50.756;6.172;2023-06-14T00:19:04;14.40;;;5.23;;
20181;SDS011;10250;50.756;6.172;2023-06-14T00:21:05;13.67;;;4.70;;
20181;SDS011;10250;50.756;6.172;2023-06-14T00:23:05;13.70;;;4.60;;
20181;SDS011;10250;50.756;6.172;2023-06-14T00:25:06;14.10;;;4.80;;
20181;SDS011;10250;50.756;6.172;2023-06-14T00:27:07;12.60;;;4.30;;
20181;SDS011;10250;50.756;6.172;2023-06-14T00:29:07;14.03;;;4.47;;
20181;SDS011;10250;50.756;6.172;2023-06-14T00:31:08;14.57;;;4.60;;
20181;SDS011;10250;50.756;6.172;2023-06-14T00:33:08;13.30;;;4.77;;
20181;SDS011;10250;50.756;6.172;2023-06-14T00:35:09;14.50;;;4.70;;
20181;SDS011;10250;50.756;6.172;2023-06-14T00:37:10;14.30;;;5.20;;
20181;SDS011;10250;50.756;6.172;2023-06-14T00:39:11;13.93;;;5.10;;
20181;SDS011;10250;50.756;6.172;2023-06-14T00:41:11;15.17;;;4.83;;
20181;SDS011;10250;50.756;6.172;2023-06-14T00:43:12;15.13;;;4.80;;
20181;SDS011;10250;50.756;6.172;2023-06-14T00:45:13;14.27;;;5.10;;
20181;SDS011;10250;50.756;6.172;2023-06-14T00:47:13;13.97;;;4.90;;
20181;SDS011;10250;50.756;6.172;2023-06-14T00:49:14;13.77;;;4.70;;
20181;SDS011;10250;50.756;6.172;2023-06-14T00:51:16;14.43;;;5.40;;
20181;SDS011;10250;50.756;6.172;2023-06-14T00:53:16;14.20;;;5.17;;
20181;SDS011;10250;50.756;6.172;2023-06-14T00:55:17;13.90;;;4.93;;
20181;SDS011;10250;50.756;6.172;2023-06-14T00:57:18;15.27;;;4.97;;
20181;SDS011;10250;50.756;6.172;2023-06-14T00:59:21;13.13;;;4.40;;
20181;SDS011;10250;50.756;6.172;2023-06-14T01:01:21;15.23;;;5.07;;
20181;SDS011;10250;50.756;6.172;2023-06-14T01:03:22;13.03;;;4.23;;
20181;SDS011;10250;50.756;6.172;2023-06-14T01:05:23;12.83;;;4.40;;
20181;SDS011;10250;50.756;6.172;2023-06-14T01:09:33;13.13;;;4.50;;
20181;SDS011;10250;50.756;6.172;2023-06-14T01:11:49;13.23;;;4.50;;
20181;SDS011;10250;50.756;6.172;2023-06-14T01:13:54;13.40;;;4.63;;
20181;SDS011;10250;50.756;6.172;2023-06-14T01:15:56;13.00;;;4.83;;
20181;SDS011;10250;50.756;6.172;2023-06-14T01:17:57;13.33;;;5.03;;
20181;SDS011;10250;50.756;6.172;2023-06-14T01:20:03;13.60;;;4.53;;
20181;SDS011;10250;50.756;6.172;2023-06-14T01:22:09;12.17;;;4.77;;
20181;SDS011;10250;50.756;6.172;2023-06-14T01:24:10;13.13;;;4.70;;
20181;SDS011;10250;50.756;6.172;2023-06-14T01:26:11;14.10;;;5.10;;
20181;SDS011;10250;50.756;6.172;2023-06-14T01:28:12;14.07;;;4.83;;
20181;SDS011;10250;50.756;6.172;2023-06-14T01:30:17;13.80;;;4.93;;
20181;SDS011;10250;50.756;6.172;2023-06-14T01:32:18;14.97;;;5.07;;
20181;SDS011;10250;50.756;6.172;2023-06-14T01:34:18;13.87;;;4.90;;
20181;SDS011;10250;50.756;6.172;2023-06-14T01:36:19;13.47;;;4.53;;
20181;SDS011;10250;50.756;6.172;2023-06-14T01:38:22;13.40;;;4.80;;
20181;SDS011;10250;50.756;6.172;2023-06-14T01:40:25;14.00;;;4.90;;
20181;SDS011;10250;50.756;6.172;2023-06-14T01:42:26;13.33;;;4.73;;
20181;SDS011;10250;50.756;6.172;2023-06-14T01:44:27;13.37;;;4.90;;
20181;SDS011;10250;50.756;6.172;2023-06-14T01:46:29;13.60;;;4.70;;
20181;SDS011;10250;50.756;6.172;2023-06-14T01:48:29;13.43;;;4.77;;
20181;SDS011;10250;50.756;6.172;2023-06-14T01:50:30;13.83;;;4.67;;
20181;SDS011;10250;50.756;6.172;2023-06-14T01:52:31;14.07;;;4.63;;
20181;SDS011;10250;50.756;6.172;2023-06-14T01:54:31;13.13;;;4.60;;
20181;SDS011;10250;50.756;6.172;2023-06-14T01:56:32;13.73;;;4.40;;
20181;SDS011;10250;50.756;6.172;2023-06-14T01:58:32;13.73;;;4.70;;
20181;SDS011;10250;50.756;6.172;2023-06-14T02:00:33;15.50;;;4.60;;
20181;SDS011;10250;50.756;6.172;2023-06-14T02:02:34;14.57;;;5.30;;
20181;SDS011;10250;50.756;6.172;2023-06-14T02:04:35;12.50;;;4.80;;
20181;SDS011;10250;50.756;6.172;2023-06-14T02:06:36;14.03;;;4.70;;
20181;SDS011;10250;50.756;6.172;2023-06-14T02:08:37;14.43;;;4.87;;
20181;SDS011;10250;50.756;6.172;2023-06-14T02:10:37;13.77;;;4.70;;
20181;SDS011;10250;50.756;6.172;2023-06-14T02:12:38;13.90;;;5.00;;
20181;SDS011;10250;50.756;6.172;2023-06-14T02:14:38;13.90;;;4.87;;
20181;SDS011;10250;50.756;6.172;2023-06-14T02:16:39;13.63;;;5.10;;
20181;SDS011;10250;50.756;6.172;2023-06-14T02:18:39;14.30;;;4.93;;
20181;SDS011;10250;50.756;6.172;2023-06-14T02:20:40;13.93;;;4.70;;
20181;SDS011;10250;50.756;6.172;2023-06-14T02:22:41;12.73;;;4.50;;
20181;SDS011;10250;50.756;6.172;2023-06-14T02:24:41;13.40;;;4.67;;
20181;SDS011;10250;50.756;6.172;2023-06-14T02:26:42;14.10;;;4.83;;
20181;SDS011;10250;50.756;6.172;2023-06-14T02:28:43;14.20;;;4.90;;
20181;SDS011;10250;50.756;6.172;2023-06-14T02:30:44;13.40;;;4.93;;
20181;SDS011;10250;50.756;6.172;2023-06-14T02:32:44;15.57;;;5.43;;
20181;SDS011;10250;50.756;6.172;2023-06-14T02:34:45;12.27;;;4.60;;
20181;SDS011;10250;50.756;6.172;2023-06-14T02:36:49;14.87;;;4.80;;
20181;SDS011;10250;50.756;6.172;2023-06-14T02:38:50;14.70;;;5.30;;
20181;SDS011;10250;50.756;6.172;2023-06-14T02:40:50;12.97;;;4.67;;
20181;SDS011;10250;50.756;6.172;2023-06-14T02:42:51;13.97;;;4.70;;
20181;SDS011;10250;50.756;6.172;2023-06-14T02:44:52;14.43;;;4.67;;
20181;SDS011;10250;50.756;6.172;2023-06-14T02:46:55;13.27;;;4.83;;
20181;SDS011;10250;50.756;6.172;2023-06-14T02:48:56;13.07;;;4.70;;
20181;SDS011;10250;50.756;6.172;2023-06-14T02:50:56;12.60;;;4.50;;
20181;SDS011;10250;50.756;6.172;2023-06-14T02:52:57;12.53;;;4.13;;
20181;SDS011;10250;50.756;6.172;2023-06-14T02:54:58;17.53;;;5.13;;
20181;SDS011;10250;50.756;6.172;2023-06-14T02:56:59;13.63;;;4.83;;
20181;SDS011;10250;50.756;6.172;2023-06-14T02:58:59;14.03;;;4.90;;
20181;SDS011;10250;50.756;6.172;2023-06-14T03:01:00;13.97;;;4.70;;
20181;SDS011;10250;50.756;6.172;2023-06-14T03:03:03;13.37;;;4.83;;
20181;SDS011;10250;50.756;6.172;2023-06-14T03:05:04;14.93;;;4.97;;
20181;SDS011;10250;50.756;6.172;2023-06-14T03:07:07;12.97;;;4.60;;
20181;SDS011;10250;50.756;6.172;2023-06-14T03:09:11;13.70;;;4.53;;
20181;SDS011;10250;50.756;6.172;2023-06-14T03:11:12;14.50;;;5.00;;
20181;SDS011;10250;50.756;6.172;2023-06-14T03:13:13;14.37;;;5.00;;
20181;SDS011;10250;50.756;6.172;2023-06-14T03:15:14;14.13;;;4.87;;
20181;SDS011;10250;50.756;6.172;2023-06-14T03:17:15;13.53;;;4.80;;
20181;SDS011;10250;50.756;6.172;2023-06-14T03:19:17;13.53;;;4.83;;
20181;SDS011;10250;50.756;6.172;2023-06-14T03:21:18;15.00;;;5.23;;
20181;SDS011;10250;50.756;6.172;2023-06-14T03:23:20;14.93;;;4.87;;
20181;SDS011;10250;50.756;6.172;2023-06-14T03:25:21;15.27;;;5.30;;
20181;SDS011;10250;50.756;6.172;2023-06-14T03:27:22;14.93;;;5.40;;
20181;SDS011;10250;50.756;6.172;2023-06-14T03:29:22;14.07;;;5.20;;
20181;SDS011;10250;50.756;6.172;2023-06-14T03:31:23;12.70;;;4.47;;
20181;SDS011;10250;50.756;6.172;2023-06-14T03:33:23;13.37;;;5.00;;
20181;SDS011;10250;50.756;6.172;2023-06-14T03:35:25;14.07;;;4.83;;
20181;SDS011;10250;50.756;6.172;2023-06-14T03:37:25;15.93;;;4.90;;
20181;SDS011;10250;50.756;6.172;2023-06-14T03:39:26;13.23;;;4.87;;
20181;SDS011;10250;50.756;6.172;2023-06-14T03:41:27;13.27;;;4.43;;
20181;SDS011;10250;50.756;6.172;2023-06-14T03:43:27;15.37;;;5.10;;
20181;SDS011;10250;50.756;6.172;2023-06-14T03:45:30;15.63;;;5.10;;
20181;SDS011;10250;50.756;6.172;2023-06-14T03:47:30;12.97;;;4.70;;
20181;SDS011;10250;50.756;6.172;2023-06-14T03:49:31;13.87;;;4.63;;
20181;SDS011;10250;50.756;6.172;2023-06-14T03:51:31;14.83;;;5.10;;
20181;SDS011;10250;50.756;6.172;2023-06-14T03:53:32;14.23;;;5.07;;
20181;SDS011;10250;50.756;6.172;2023-06-14T03:55:32;13.27;;;4.93;;
20181;SDS011;10250;50.756;6.172;2023-06-14T03:57:33;12.87;;;4.83;;
20181;SDS011;10250;50.756;6.172;2023-06-14T03:59:34;13.03;;;4.30;;
20181;SDS011;10250;50.756;6.172;2023-06-14T04:01:35;14.67;;;5.40;;
20181;SDS011;10250;50.756;6.172;2023-06-14T04:03:36;13.63;;;4.80;;
20181;SDS011;10250;50.756;6.172;2023-06-14T04:05:36;15.63;;;5.20;;
20181;SDS011;10250;50.756;6.172;2023-06-14T04:07:37;14.43;;;5.50;;
20181;SDS011;10250;50.756;6.172;2023-06-14T04:09:40;13.50;;;4.97;;
20181;SDS011;10250;50.756;6.172;2023-06-14T04:11:41;14.07;;;4.87;;
20181;SDS011;10250;50.756;6.172;2023-06-14T04:13:41;14.23;;;4.83;;
20181;SDS011;10250;50.756;6.172;2023-06-14T04:15:42;13.80;;;5.03;;
20181;SDS011;10250;50.756;6.172;2023-06-14T04:17:45;14.77;;;5.10;;
20181;SDS011;10250;50.756;6.172;2023-06-14T04:19:46;14.83;;;5.17;;
20181;SDS011;10250;50.756;6.172;2023-06-14T04:21:47;12.97;;;4.80;;
20181;SDS011;10250;50.756;6.172;2023-06-14T04:23:48;14.57;;;4.53;;
20181;SDS011;10250;50.756;6.172;2023-06-14T04:25:48;14.13;;;4.40;;
20181;SDS011;10250;50.756;6.172;2023-06-14T04:27:49;14.73;;;4.50;;
20181;SDS011;10250;50.756;6.172;2023-06-14T04:29:50;14.60;;;5.20;;
20181;SDS011;10250;50.756;6.172;2023-06-14T04:31:56;12.30;;;4.33;;
20181;SDS011;10250;50.756;6.172;2023-06-14T04:33:59;13.60;;;4.93;;
20181;SDS011;10250;50.756;6.172;2023-06-14T04:36:00;14.57;;;4.57;;
20181;SDS011;10250;50.756;6.172;2023-06-14T04:38:00;15.77;;;5.30;;
20181;SDS011;10250;50.756;6.172;2023-06-14T04:40:02;15.00;;;5.03;;
20181;SDS011;10250;50.756;6.172;2023-06-14T04:42:05;13.40;;;4.77;;
20181;SDS011;10250;50.756;6.172;2023-06-14T04:44:07;12.90;;;4.80;;
20181;SDS011;10250;50.756;6.172;2023-06-14T04:46:07;13.63;;;4.83;;
20181;SDS011;10250;50.756;6.172;2023-06-14T04:48:10;14.47;;;5.00;;
20181;SDS011;10250;50.756;6.172;2023-06-14T04:50:12;14.60;;;5.00;;
20181;SDS011;10250;50.756;6.172;2023-06-14T04:52:13;14.10;;;5.20;;
20181;SDS011;10250;50.756;6.172;2023-06-14T04:54:13;14.27;;;4.87;;
20181;SDS011;10250;50.756;6.172;2023-06-14T04:56:15;14.33;;;4.70;;
20181;SDS011;10250;50.756;6.172;2023-06-14T04:58:16;13.83;;;4.83;;
20181;SDS011;10250;50.756;6.172;2023-06-14T05:00:17;14.43;;;5.20;;
20181;SDS011;10250;50.756;6.172;2023-06-14T05:02:18;13.07;;;4.70;;
20181;SDS011;10250;50.756;6.172;2023-06-14T05:04:19;14.43;;;5.47;;
20181;SDS011;10250;50.756;6.172;2023-06-14T05:06:21;13.93;;;4.67;;
20181;SDS011;10250;50.756;6.172;2023-06-14T05:08:22;13.67;;;4.73;;
20181;SDS011;10250;50.756;6.172;2023-06-14T05:10:25;13.67;;;4.60;;
20181;SDS011;10250;50.756;6.172;2023-06-14T05:12:26;14.60;;;4.90;;
20181;SDS011;10250;50.756;6.172;2023-06-14T05:14:27;12.70;;;4.57;;
20181;SDS011;10250;50.756;6.172;2023-06-14T05:16:27;13.13;;;4.83;;
20181;SDS011;10250;50.756;6.172;2023-06-14T05:18:29;12.37;;;4.77;;
20181;SDS011;10250;50.756;6.172;2023-06-14T05:20:29;12.37;;;4.17;;
20181;SDS011;10250;50.756;6.172;2023-06-14T05:22:30;13.27;;;4.33;;
20181;SDS011;10250;50.756;6.172;2023-06-14T05:24:31;14.40;;;4.73;;
20181;SDS011;10250;50.756;6.172;2023-06-14T05:26:32;13.13;;;4.93;;
20181;SDS011;10250;50.756;6.172;2023-06-14T05:28:33;15.13;;;5.10;;
20181;SDS011;10250;50.756;6.172;2023-06-14T05:30:34;14.13;;;4.97;;
20181;SDS011;10250;50.756;6.172;2023-06-14T05:32:34;12.97;;;4.80;;
20181;SDS011;10250;50.756;6.172;2023-06-14T05:34:35;15.13;;;4.93;;
20181;SDS011;10250;50.756;6.172;2023-06-14T05:36:35;15.00;;;5.30;;
20181;SDS011;10250;50.756;6.172;2023-06-14T05:38:37;13.83;;;4.80;;
20181;SDS011;10250;50.756;6.172;2023-06-14T05:40:37;14.07;;;4.87;;
20181;SDS011;10250;50.756;6.172;2023-06-14T05:42:38;13.77;;;5.03;;
20181;SDS011;10250;50.756;6.172;2023-06-14T05:44:38;14.23;;;5.23;;
20181;SDS011;10250;50.756;6.172;2023-06-14T05:46:39;15.33;;;5.37;;
20181;SDS011;10250;50.756;6.172;2023-06-14T05:48:40;14.70;;;5.37;;
20181;SDS011;10250;50.756;6.172;2023-06-14T05:50:40;14.57;;;5.23;;
20181;SDS011;10250;50.756;6.172;2023-06-14T05:52:41;14.73;;;5.10;;
20181;SDS011;10250;50.756;6.172;2023-06-14T05:54:42;14.10;;;5.03;;
20181;SDS011;10250;50.756;6.172;2023-06-14T05:56:42;13.80;;;5.10;;
20181;SDS011;10250;50.756;6.172;2023-06-14T05:58:43;13.27;;;4.80;;
20181;SDS011;10250;50.756;6.172;2023-06-14T06:00:44;14.00;;;4.70;;
20181;SDS011;10250;50.756;6.172;2023-06-14T06:02:45;13.90;;;5.13;;
20181;SDS011;10250;50.756;6.172;2023-06-14T06:04:47;14.70;;;5.20;;
20181;SDS011;10250;50.756;6.172;2023-06-14T06:06:48;14.20;;;5.50;;
20181;SDS011;10250;50.756;6.172;2023-06-14T06:08:48;13.70;;;5.23;;
20181;SDS011;10250;50.756;6.172;2023-06-14T06:10:49;15.23;;;5.13;;
20181;SDS011;10250;50.756;6.172;2023-06-14T06:12:49;15.60;;;5.33;;
20181;SDS011;10250;50.756;6.172;2023-06-14T06:14:52;12.77;;;4.73;;
20181;SDS011;10250;50.756;6.172;2023-06-14T06:16:53;14.20;;;4.93;;
20181;SDS011;10250;50.756;6.172;2023-06-14T06:18:54;14.53;;;4.97;;
20181;SDS011;10250;50.756;6.172;2023-06-14T06:20:54;14.13;;;4.27;;
20181;SDS011;10250;50.756;6.172;2023-06-14T06:22:55;13.63;;;4.50;;
20181;SDS011;10250;50.756;6.172;2023-06-14T06:24:56;11.27;;;4.30;;
20181;SDS011;10250;50.756;6.172;2023-06-14T06:26:57;13.27;;;4.40;;
20181;SDS011;10250;50.756;6.172;2023-06-14T06:28:58;12.63;;;4.27;;
20181;SDS011;10250;50.756;6.172;2023-06-14T06:30:59;13.87;;;4.27;;
20181;SDS011;10250;50.756;6.172;2023-06-14T06:32:59;12.53;;;4.27;;
20181;SDS011;10250;50.756;6.172;2023-06-14T06:35:00;14.00;;;3.97;;
20181;SDS011;10250;50.756;6.172;2023-06-14T06:37:01;14.33;;;4.30;;
20181;SDS011;10250;50.756;6.172;2023-06-14T06:39:02;11.90;;;3.83;;
20181;SDS011;10250;50.756;6.172;2023-06-14T06:41:10;12.40;;;4.10;;
20181;SDS011;10250;50.756;6.172;2023-06-14T06:43:11;12.10;;;3.93;;
20181;SDS011;10250;50.756;6.172;2023-06-14T06:45:16;12.50;;;4.23;;
20181;SDS011;10250;50.756;6.172;2023-06-14T06:47:17;11.33;;;4.20;;
20181;SDS011;10250;50.756;6.172;2023-06-14T06:49:18;17.07;;;4.33;;
20181;SDS011;10250;50.756;6.172;2023-06-14T06:51:19;18.57;;;4.77;;
20181;SDS011;10250;50.756;6.172;2023-06-14T06:53:20;12.50;;;4.00;;
20181;SDS011;10250;50.756;6.172;2023-06-14T06:55:21;10.95;;;3.42;;
20181;SDS011;10250;50.756;6.172;2023-06-14T06:57:22;11.85;;;3.92;;
20181;SDS011;10250;50.756;6.172;2023-06-14T06:59:23;10.80;;;3.30;;
20181;SDS011;10250;50.756;6.172;2023-06-14T07:01:24;11.75;;;3.47;;
20181;SDS011;10250;50.756;6.172;2023-06-14T07:03:26;11.33;;;3.60;;
20181;SDS011;10250;50.756;6.172;2023-06-14T07:05:27;11.57;;;3.63;;
20181;SDS011;10250;50.756;6.172;2023-06-14T07:07:28;12.37;;;3.57;;
20181;SDS011;10250;50.756;6.172;2023-06-14T07:09:28;10.47;;;3.47;;
20181;SDS011;10250;50.756;6.172;2023-06-14T07:11:29;11.23;;;3.63;;
20181;SDS011;10250;50.756;6.172;2023-06-14T07:13:31;10.97;;;3.57;;
20181;SDS011;10250;50.756;6.172;2023-06-14T07:15:32;11.00;;;3.60;;
20181;SDS011;10250;50.756;6.172;2023-06-14T07:17:33;10.37;;;3.33;;
20181;SDS011;10250;50.756;6.172;2023-06-14T07:19:34;12.47;;;3.33;;
20181;SDS011;10250;50.756;6.172;2023-06-14T07:21:35;12.00;;;3.83;;
20181;SDS011;10250;50.756;6.172;2023-06-14T07:23:38;11.37;;;3.73;;
20181;SDS011;10250;50.756;6.172;2023-06-14T07:25:39;11.57;;;3.43;;
20181;SDS011;10250;50.756;6.172;2023-06-14T07:27:40;13.90;;;3.40;;
20181;SDS011;10250;50.756;6.172;2023-06-14T07:29:42;11.73;;;3.60;;
20181;SDS011;10250;50.756;6.172;2023-06-14T07:31:43;12.53;;;3.63;;
20181;SDS011;10250;50.756;6.172;2023-06-14T07:33:44;10.40;;;3.43;;
20181;SDS011;10250;50.756;6.172;2023-06-14T07:35:45;12.17;;;3.50;;
20181;SDS011;10250;50.756;6.172;2023-06-14T07:37:47;10.73;;;3.40;;
20181;SDS011;10250;50.756;6.172;2023-06-14T07:39:49;11.87;;;3.70;;
20181;SDS011;10250;50.756;6.172;2023-06-14T07:41:50;11.10;;;3.50;;
20181;SDS011;10250;50.756;6.172;2023-06-14T07:43:51;11.07;;;3.73;;
20181;SDS011;10250;50.756;6.172;2023-06-14T07:45:52;12.10;;;3.67;;
20181;SDS011;10250;50.756;6.172;2023-06-14T07:47:53;11.27;;;3.43;;
20181;SDS011;10250;50.756;6.172;2023-06-14T07:49:55;13.90;;;3.70;;
20181;SDS011;10250;50.756;6.172;2023-06-14T07:51:56;11.07;;;3.60;;
20181;SDS011;10250;50.756;6.172;2023-06-14T07:53:58;13.27;;;4.03;;
20181;SDS011;10250;50.756;6.172;2023-06-14T07:56:01;11.70;;;3.50;;
20181;SDS011;10250;50.756;6.172;2023-06-14T07:58:03;11.37;;;3.43;;
20181;SDS011;10250;50.756;6.172;2023-06-14T08:00:04;11.50;;;3.57;;
20181;SDS011;10250;50.756;6.172;2023-06-14T08:02:08;10.90;;;3.30;;
20181;SDS011;10250;50.756;6.172;2023-06-14T08:04:09;12.17;;;3.33;;
20181;SDS011;10250;50.756;6.172;2023-06-14T08:06:10;11.07;;;3.07;;
20181;SDS011;10250;50.756;6.172;2023-06-14T08:08:11;10.10;;;2.97;;
20181;SDS011;10250;50.756;6.172;2023-06-14T08:10:12;9.67;;;2.80;;
20181;SDS011;10250;50.756;6.172;2023-06-14T08:12:13;11.93;;;3.30;;
20181;SDS011;10250;50.756;6.172;2023-06-14T08:14:14;14.10;;;3.00;;
20181;SDS011;10250;50.756;6.172;2023-06-14T08:16:15;8.80;;;2.77;;
20181;SDS011;10250;50.756;6.172;2023-06-14T08:18:16;9.63;;;2.67;;
20181;SDS011;10250;50.756;6.172;2023-06-14T08:20:17;9.80;;;2.90;;
20181;SDS011;10250;50.756;6.172;2023-06-14T08:22:18;9.50;;;3.00;;
20181;SDS011;10250;50.756;6.172;2023-06-14T08:24:21;10.17;;;2.97;;
20181;SDS011;10250;50.756;6.172;2023-06-14T08:26:24;9.73;;;2.77;;
20181;SDS011;10250;50.756;6.172;2023-06-14T08:28:28;11.33;;;3.00;;
20181;SDS011;10250;50.756;6.172;2023-06-14T08:30:30;10.93;;;2.77;;
20181;SDS011;10250;50.756;6.172;2023-06-14T08:32:31;9.63;;;2.73;;
20181;SDS011;10250;50.756;6.172;2023-06-14T08:34:32;10.97;;;2.90;;
20181;SDS011;10250;50.756;6.172;2023-06-14T08:36:33;9.93;;;2.77;;
20181;SDS011;10250;50.756;6.172;2023-06-14T08:38:35;10.73;;;2.97;;
20181;SDS011;10250;50.756;6.172;2023-06-14T08:40:37;12.30;;;3.20;;
20181;SDS011;10250;50.756;6.172;2023-06-14T08:42:38;11.27;;;2.87;;
20181;SDS011;10250;50.756;6.172;2023-06-14T08:44:40;10.53;;;2.87;;
20181;SDS011;10250;50.756;6.172;2023-06-14T08:46:42;8.73;;;2.70;;
20181;SDS011;10250;50.756;6.172;2023-06-14T08:48:43;14.63;;;2.70;;
20181;SDS011;10250;50.756;6.172;2023-06-14T08:50:44;10.03;;;2.80;;
20181;SDS011;10250;50.756;6.172;2023-06-14T08:52:46;13.00;;;3.07;;
20181;SDS011;10250;50.756;6.172;2023-06-14T08:54:52;10.90;;;2.83;;
20181;SDS011;10250;50.756;6.172;2023-06-14T08:56:53;10.77;;;2.43;;
20181;SDS011;10250;50.756;6.172;2023-06-14T08:58:57;8.13;;;2.40;;
20181;SDS011;10250;50.756;6.172;2023-06-14T09:01:02;9.63;;;2.60;;
20181;SDS011;10250;50.756;6.172;2023-06-14T09:03:03;8.43;;;2.37;;
20181;SDS011;10250;50.756;6.172;2023-06-14T09:05:05;8.73;;;2.53;;
20181;SDS011;10250;50.756;6.172;2023-06-14T09:07:06;12.63;;;2.37;;
20181;SDS011;10250;50.756;6.172;2023-06-14T09:09:09;6.20;;;2.10;;
20181;SDS011;10250;50.756;6.172;2023-06-14T09:11:11;7.40;;;2.23;;
20181;SDS011;10250;50.756;6.172;2023-06-14T09:13:14;9.87;;;2.40;;
20181;SDS011;10250;50.756;6.172;2023-06-14T09:15:16;9.73;;;2.83;;
20181;SDS011;10250;50.756;6.172;2023-06-14T09:17:17;10.60;;;2.73;;
20181;SDS011;10250;50.756;6.172;2023-06-14T09:19:21;6.77;;;2.30;;
20181;SDS011;10250;50.756;6.172;2023-06-14T09:21:22;7.73;;;2.37;;
20181;SDS011;10250;50.756;6.172;2023-06-14T09:23:24;7.93;;;2.37;;
20181;SDS011;10250;50.756;6.172;2023-06-14T09:25:25;10.63;;;2.70;;
20181;SDS011;10250;50.756;6.172;2023-06-14T09:27:28;9.53;;;2.30;;
20181;SDS011;10250;50.756;6.172;2023-06-14T09:29:29;7.57;;;2.53;;
20181;SDS011;10250;50.756;6.172;2023-06-14T09:31:31;9.53;;;2.60;;
20181;SDS011;10250;50.756;6.172;2023-06-14T09:33:32;7.60;;;2.30;;
20181;SDS011;10250;50.756;6.172;2023-06-14T09:35:33;8.37;;;2.27;;
20181;SDS011;10250;50.756;6.172;2023-06-14T09:37:35;7.73;;;2.40;;
20181;SDS011;10250;50.756;6.172;2023-06-14T09:39:48;9.73;;;2.40;;
20181;SDS011;10250;50.756;6.172;2023-06-14T09:41:50;7.50;;;2.30;;
20181;SDS011;10250;50.756;6.172;2023-06-14T09:43:51;7.67;;;2.27;;
20181;SDS011;10250;50.756;6.172;2023-06-14T09:45:57;9.87;;;2.70;;
20181;SDS011;10250;50.756;6.172;2023-06-14T09:47:58;8.13;;;2.40;;
20181;SDS011;10250;50.756;6.172;2023-06-14T09:49:59;10.77;;;2.63;;
20181;SDS011;10250;50.756;6.172;2023-06-14T09:52:00;9.00;;;2.63;;
20181;SDS011;10250;50.756;6.172;2023-06-14T09:54:03;9.77;;;2.77;;
20181;SDS011;10250;50.756;6.172;2023-06-14T09:56:04;9.97;;;2.70;;
20181;SDS011;10250;50.756;6.172;2023-06-14T09:58:06;8.97;;;2.47;;
20181;SDS011;10250;50.756;6.172;2023-06-14T10:00:07;6.57;;;2.10;;
20181;SDS011;10250;50.756;6.172;2023-06-14T10:02:28;7.07;;;2.10;;
20181;SDS011;10250;50.756;6.172;2023-06-14T10:04:31;8.33;;;2.20;;
20181;SDS011;10250;50.756;6.172;2023-06-14T10:06:35;9.63;;;2.50;;
20181;SDS011;10250;50.756;6.172;2023-06-14T10:08:37;11.23;;;2.40;;
20181;SDS011;10250;50.756;6.172;2023-06-14T10:10:39;8.00;;;2.20;;
20181;SDS011;10250;50.756;6.172;2023-06-14T10:12:40;11.80;;;2.70;;
20181;SDS011;10250;50.756;6.172;2023-06-14T10:14:41;7.90;;;2.50;;
20181;SDS011;10250;50.756;6.172;2023-06-14T10:21:02;10.70;;;2.53;;
20181;SDS011;10250;50.756;6.172;2023-06-14T10:23:40;9.80;;;2.37;;
20181;SDS011;10250;50.756;6.172;2023-06-14T10:25:33;7.83;;;2.30;;
20181;SDS011;10250;50.756;6.172;2023-06-14T10:27:34;8.70;;;2.37;;
20181;SDS011;10250;50.756;6.172;2023-06-14T10:32:01;14.40;;;2.40;;
20181;SDS011;10250;50.756;6.172;2023-06-14T10:34:03;5.77;;;2.00;;
20181;SDS011;10250;50.756;6.172;2023-06-14T10:36:07;8.23;;;2.20;;
20181;SDS011;10250;50.756;6.172;2023-06-14T10:38:09;6.60;;;2.03;;
20181;SDS011;10250;50.756;6.172;2023-06-14T10:40:10;8.97;;;2.20;;
20181;SDS011;10250;50.756;6.172;2023-06-14T10:42:33;7.17;;;2.13;;
20181;SDS011;10250;50.756;6.172;2023-06-14T10:46:38;5.80;;;1.80;;
20181;SDS011;10250;50.756;6.172;2023-06-14T10:48:42;10.37;;;1.77;;
20181;SDS011;10250;50.756;6.172;2023-06-14T10:50:44;12.20;;;2.23;;
20181;SDS011;10250;50.756;6.172;2023-06-14T10:52:49;5.73;;;1.70;;
20181;SDS011;10250;50.756;6.172;2023-06-14T10:55:03;8.13;;;2.40;;
20181;SDS011;10250;50.756;6.172;2023-06-14T10:57:06;6.20;;;1.80;;
20181;SDS011;10250;50.756;6.172;2023-06-14T10:59:10;5.60;;;1.83;;
20181;SDS011;10250;50.756;6.172;2023-06-14T11:01:12;5.63;;;1.70;;
20181;SDS011;10250;50.756;6.172;2023-06-14T11:10:58;5.13;;;1.60;;
20181;SDS011;10250;50.756;6.172;2023-06-14T11:12:34;6.13;;;1.57;;
20181;SDS011;10250;50.756;6.172;2023-06-14T11:14:35;5.47;;;1.80;;
20181;SDS011;10250;50.756;6.172;2023-06-14T11:16:36;7.53;;;1.70;;
20181;SDS011;10250;50.756;6.172;2023-06-14T11:18:37;6.73;;;1.60;;
20181;SDS011;10250;50.756;6.172;2023-06-14T11:20:39;6.47;;;1.70;;
20181;SDS011;10250;50.756;6.172;2023-06-14T11:22:41;5.47;;;1.83;;
20181;SDS011;10250;50.756;6.172;2023-06-14T11:24:42;4.20;;;1.47;;
20181;SDS011;10250;50.756;6.172;2023-06-14T11:26:45;4.63;;;1.60;;
20181;SDS011;10250;50.756;6.172;2023-06-14T11:28:47;7.53;;;1.90;;
20181;SDS011;10250;50.756;6.172;2023-06-14T11:30:48;6.10;;;1.93;;
20181;SDS011;10250;50.756;6.172;2023-06-14T11:32:50;5.47;;;1.70;;
20181;SDS011;10250;50.756;6.172;2023-06-14T11:34:51;8.27;;;1.87;;
20181;SDS011;10250;50.756;6.172;2023-06-14T11:36:53;6.50;;;1.80;;
20181;SDS011;10250;50.756;6.172;2023-06-14T11:38:57;7.90;;;1.97;;
20181;SDS011;10250;50.756;6.172;2023-06-14T11:40:59;5.10;;;1.63;;
20181;SDS011;10250;50.756;6.172;2023-06-14T11:43:01;7.97;;;1.80;;
20181;SDS011;10250;50.756;6.172;2023-06-14T11:45:03;5.77;;;1.60;;
20181;SDS011;10250;50.756;6.172;2023-06-14T11:47:05;7.43;;;1.80;;
20181;SDS011;10250;50.756;6.172;2023-06-14T11:49:06;5.33;;;1.80;;
20181;SDS011;10250;50.756;6.172;2023-06-14T11:51:09;10.67;;;2.07;;
20181;SDS011;10250;50.756;6.172;2023-06-14T11:53:11;5.67;;;1.70;;
20181;SDS011;10250;50.756;6.172;2023-06-14T11:55:12;6.77;;;1.80;;
20181;SDS011;10250;50.756;6.172;2023-06-14T11:57:14;5.13;;;1.87;;
20181;SDS011;10250;50.756;6.172;2023-06-14T11:59:14;6.77;;;1.87;;
20181;SDS011;10250;50.756;6.172;2023-06-14T12:01:16;6.57;;;1.77;;
20181;SDS011;10250;50.756;6.172;2023-06-14T12:03:17;8.13;;;2.00;;
20181;SDS011;10250;50.756;6.172;2023-06-14T12:05:23;8.67;;;1.97;;
20181;SDS011;10250;50.756;6.172;2023-06-14T12:07:24;10.73;;;2.30;;
20181;SDS011;10250;50.756;6.172;2023-06-14T12:09:26;7.37;;;2.10;;
20181;SDS011;10250;50.756;6.172;2023-06-14T12:11:32;6.07;;;1.70;;
20181;SDS011;10250;50.756;6.172;2023-06-14T12:13:34;16.70;;;4.20;;
20181;SDS011;10250;50.756;6.172;2023-06-14T12:15:35;6.87;;;1.97;;
20181;SDS011;10250;50.756;6.172;2023-06-14T12:17:36;7.90;;;2.20;;
20181;SDS011;10250;50.756;6.172;2023-06-14T12:19:42;7.70;;;1.90;;
20181;SDS011;10250;50.756;6.172;2023-06-14T12:21:45;11.30;;;2.50;;
20181;SDS011;10250;50.756;6.172;2023-06-14T12:23:51;5.57;;;1.90;;